Time;durP1;ratioP1;P1;durP2;ratioP2;P2;SDS_P1;SDS_P2;PMS_P1;PMS_P2;Temp;Humidity;BMP_temperature;BMP_pressure;BME280_temperature;BME280_humidity;BME280_pressure;Samples;Min_cycle;Max_cycle;Signal;HPM_P1;HPM_P2
2022/05/09 04:00:53;;;;;;;5.38;3.95;;;7.00;99.90;;;;;;5688482;23;20316;-69
2022/05/09 04:03:20;;;;;;;7.60;4.32;;;7.00;99.90;;;;;;4974257;28;20204;-69
2022/05/09 04:05:47;;;;;;;8.90;4.00;;;7.00;99.90;;;;;;4974710;28;20208;-69
2022/05/09 04:08:17;;;;;;;7.30;4.60;;;7.10;99.90;;;;;;4973914;28;20212;-69
2022/05/09 04:10:45;;;;;;;3.72;3.42;;;7.10;99.90;;;;;;4974482;28;20238;-69
2022/05/09 04:13:12;;;;;;;8.55;5.28;;;7.10;99.90;;;;;;4998189;23;20274;-71
2022/05/09 04:18:28;;;;;;;4.70;3.85;;;7.20;99.90;;;;;;4974640;28;20344;-71
2022/05/09 04:20:54;;;;;;;3.10;2.90;;;7.30;99.90;;;;;;4974441;28;20209;-74
2022/05/09 04:23:22;;;;;;;3.03;2.80;;;7.30;99.90;;;;;;4973817;28;20235;-72
2022/05/09 04:25:49;;;;;;;4.35;2.83;;;7.30;99.90;;;;;;4974577;28;20686;-71
2022/05/09 04:28:18;;;;;;;4.85;3.40;;;7.30;99.90;;;;;;4974168;28;20292;-74
2022/05/09 04:30:45;;;;;;;3.17;2.97;;;7.40;99.90;;;;;;4972806;28;20223;-73
2022/05/09 04:33:12;;;;;;;4.57;4.15;;;7.60;99.90;;;;;;4985313;28;20267;-73
2022/05/09 04:35:42;;;;;;;7.22;3.85;;;8.10;99.90;;;;;;4993780;28;20228;-73
2022/05/09 04:38:14;;;;;;;3.67;3.40;;;8.60;99.90;;;;;;4993058;28;20569;-73
2022/05/09 04:40:41;;;;;;;5.78;5.28;;;9.10;99.90;;;;;;4993056;28;20215;-73
2022/05/09 04:43:08;;;;;;;4.50;4.18;;;9.70;99.90;;;;;;4993501;28;20618;-73
2022/05/09 04:45:35;;;;;;;5.17;4.67;;;10.30;99.90;;;;;;4993476;28;20585;-74
2022/05/09 04:48:02;;;;;;;4.53;4.00;;;10.90;99.90;;;;;;4993407;28;20537;-74
2022/05/09 04:50:32;;;;;;;4.90;4.30;;;11.60;99.90;;;;;;4992866;28;20545;-74
2022/05/09 04:53:00;;;;;;;5.17;3.77;;;12.00;99.90;;;;;;4993017;28;20466;-72
2022/05/09 04:55:27;;;;;;;4.97;4.50;;;12.40;99.90;;;;;;4993242;28;20634;-72
2022/05/09 04:57:55;;;;;;;3.77;3.33;;;12.90;99.90;;;;;;4993454;28;20478;-72
2022/05/09 05:00:25;;;;;;;4.40;4.10;;;13.60;99.90;;;;;;4992815;28;20482;-72
2022/05/09 05:02:51;;;;;;;4.40;4.00;;;14.00;99.90;;;;;;4993386;28;20536;-72
2022/05/09 05:05:18;;;;;;;3.63;3.43;;;14.20;99.90;;;;;;4993206;28;20483;-72
2022/05/09 05:07:45;;;;;;;10.10;5.23;;;14.30;99.90;;;;;;4993247;28;20466;-72
2022/05/09 05:10:14;;;;;;;5.73;3.90;;;14.20;99.90;;;;;;4995265;28;20485;-72
2022/05/09 05:12:41;;;;;;;8.17;3.90;;;14.10;99.90;;;;;;5005619;28;20459;-72
2022/05/09 05:15:08;;;;;;;5.03;4.53;;;13.70;99.90;;;;;;5015528;28;20495;-71
2022/05/09 05:17:36;;;;;;;7.93;3.73;;;13.10;99.90;;;;;;5015384;28;20459;-71
2022/05/09 05:20:04;;;;;;;5.33;3.73;;;12.60;99.90;;;;;;5007410;28;20471;-72
2022/05/09 05:22:35;;;;;;;4.30;3.90;;;12.40;99.90;;;;;;4989901;28;20510;-72
2022/05/09 05:25:01;;;;;;;3.73;3.47;;;12.10;99.90;;;;;;4974555;28;20581;-72
2022/05/09 05:27:29;;;;;;;9.17;5.10;;;11.90;99.90;;;;;;4974052;28;20902;-71
2022/05/09 05:29:57;;;;;;;5.88;5.25;;;11.70;99.90;;;;;;4977820;28;20531;-72
2022/05/09 05:32:28;;;;;;;7.63;5.88;;;11.50;99.90;;;;;;4977150;28;20208;-72
2022/05/09 05:34:55;;;;;;;8.65;5.00;;;11.30;99.90;;;;;;4976693;28;20235;-74
2022/05/09 05:37:22;;;;;;;5.80;5.30;;;11.20;99.90;;;;;;4975996;28;20224;-73
2022/05/09 05:39:49;;;;;;;13.43;5.05;;;11.10;99.90;;;;;;4973739;28;20700;-73
2022/05/09 05:42:17;;;;;;;6.72;4.93;;;11.00;99.90;;;;;;4973562;28;20653;-72
2022/05/09 05:44:46;;;;;;;6.50;5.10;;;11.00;99.90;;;;;;4973316;28;20322;-71
2022/05/09 05:47:14;;;;;;;6.15;5.53;;;11.00;99.90;;;;;;4973058;28;20271;-71
2022/05/09 05:49:42;;;;;;;4.72;4.20;;;10.90;99.90;;;;;;4972398;28;20209;-72
2022/05/09 05:52:11;;;;;;;3.90;3.45;;;10.80;99.90;;;;;;4972670;28;20216;-72
2022/05/09 05:54:40;;;;;;;3.78;3.35;;;10.90;99.90;;;;;;4973099;28;20660;-72
2022/05/09 05:57:08;;;;;;;4.57;4.15;;;10.90;99.90;;;;;;4973066;28;20316;-72
2022/05/09 05:59:34;;;;;;;3.20;2.85;;;11.00;99.90;;;;;;4972369;28;20204;-72
2022/05/09 06:02:02;;;;;;;2.92;2.70;;;11.20;99.90;;;;;;4973440;28;20630;-73
2022/05/09 06:04:29;;;;;;;7.97;3.30;;;11.70;99.90;;;;;;4973152;28;20335;-72
2022/05/09 06:06:56;;;;;;;4.70;2.70;;;12.70;99.90;;;;;;4972496;28;20467;-71
2022/05/09 06:09:22;;;;;;;3.97;2.60;;;13.60;99.90;;;;;;4972816;28;20522;-72
2022/05/09 06:11:49;;;;;;;7.10;4.30;;;14.40;99.90;;;;;;4979011;28;20537;-73
2022/05/09 06:14:15;;;;;;;5.10;2.40;;;15.10;99.90;;;;;;4992275;28;20640;-73
2022/05/09 06:16:43;;;;;;;2.77;2.57;;;15.90;99.90;;;;;;4992161;28;20522;-73
2022/05/09 06:19:11;;;;;;;2.90;2.57;;;16.20;99.90;;;;;;4992363;28;20502;-73
2022/05/09 06:21:38;;;;;;;6.23;2.67;;;16.30;99.90;;;;;;4991174;28;21028;-73
2022/05/09 06:24:05;;;;;;;4.40;2.17;;;16.00;99.90;;;;;;4991549;28;20487;-72
2022/05/09 06:26:32;;;;;;;9.17;2.67;;;16.10;99.90;;;;;;4991796;28;20462;-73
2022/05/09 06:28:59;;;;;;;3.93;3.57;;;16.40;99.90;;;;;;4991631;28;20885;-72
2022/05/09 06:31:26;;;;;;;3.90;2.20;;;16.70;99.90;;;;;;4991052;28;20570;-72
2022/05/09 06:33:53;;;;;;;2.87;2.23;;;16.90;99.90;;;;;;4991843;28;20490;-72
2022/05/09 06:36:20;;;;;;;2.90;2.20;;;17.40;99.90;;;;;;4991273;28;20709;-72
2022/05/09 06:38:47;;;;;;;4.30;2.37;;;18.00;99.90;;;;;;4991383;28;20541;-72
2022/05/09 06:41:14;;;;;;;2.43;2.30;;;18.10;99.90;;;;;;4990715;28;20471;-72
2022/05/09 06:43:42;;;;;;;5.43;3.10;;;18.10;99.90;;;;;;4991371;28;20490;-72
2022/05/09 06:46:09;;;;;;;9.50;2.87;;;18.50;99.90;;;;;;4991662;28;20463;-73
2022/05/09 06:48:35;;;;;;;5.13;2.13;;;18.50;99.90;;;;;;4991691;28;20467;-72
2022/05/09 06:51:02;;;;;;;4.73;3.13;;;18.70;99.90;;;;;;4991046;28;20482;-72
2022/05/09 06:53:30;;;;;;;5.03;2.70;;;19.40;99.30;;;;;;4990561;28;20617;-73
2022/05/09 06:55:57;;;;;;;3.23;2.33;;;19.20;98.30;;;;;;4991003;28;20849;-72
2022/05/09 06:58:25;;;;;;;5.93;2.80;;;19.10;97.60;;;;;;4991195;28;20944;-72
2022/05/09 07:00:52;;;;;;;3.03;2.70;;;19.10;98.10;;;;;;4980837;28;20459;-72
2022/05/09 07:03:19;;;;;;;4.87;2.53;;;19.20;97.70;;;;;;4971454;28;20460;-72
2022/05/09 07:05:48;;;;;;;4.70;2.23;;;19.70;97.10;;;;;;4972089;28;20531;-73
2022/05/09 07:08:15;;;;;;;2.40;2.20;;;20.00;96.00;;;;;;4971130;28;20538;-72
2022/05/09 07:10:44;;;;;;;2.50;2.30;;;19.80;95.50;;;;;;4971380;28;21066;-72
2022/05/09 07:13:10;;;;;;;3.53;3.23;;;20.00;95.70;;;;;;4971513;28;20522;-73
2022/05/09 07:15:37;;;;;;;3.30;2.20;;;20.10;93.70;;;;;;4972001;28;20495;-73
2022/05/09 07:18:05;;;;;;;3.03;2.10;;;19.70;93.50;;;;;;4971696;28;20467;-73
2022/05/09 07:20:34;;;;;;;2.23;2.03;;;19.50;93.30;;;;;;4971168;28;20474;-73
2022/05/09 07:23:06;;;;;;;1.87;1.77;;;19.80;93.40;;;;;;4970892;28;20468;-73
2022/05/09 07:25:32;;;;;;;2.23;2.00;;;19.90;93.90;;;;;;4971518;28;20484;-72
2022/05/09 07:28:00;;;;;;;2.23;2.03;;;20.10;92.30;;;;;;4971694;28;20937;-72
2022/05/09 07:30:28;;;;;;;4.63;2.07;;;20.10;91.70;;;;;;4971199;28;20482;-73
2022/05/09 07:32:56;;;;;;;5.30;2.00;;;20.00;90.90;;;;;;4979692;28;20470;-73
2022/05/09 07:35:23;;;;;;;4.23;2.10;;;19.80;91.20;;;;;;4973417;28;21003;-73
2022/05/09 07:37:50;;;;;;;2.23;2.13;;;19.60;91.70;;;;;;4970882;28;20487;-73
2022/05/09 07:40:19;;;;;;;3.43;1.70;;;19.90;91.80;;;;;;4971213;28;20474;-72
2022/05/09 07:42:48;;;;;;;7.17;2.57;;;20.20;91.30;;;;;;4971817;28;20499;-73
2022/05/09 07:45:19;;;;;;;8.60;2.67;;;20.30;91.30;;;;;;4971608;28;21162;-73
2022/05/09 07:47:46;;;;;;;4.20;2.47;;;20.10;90.90;;;;;;4971678;28;20463;-72
2022/05/09 07:50:14;;;;;;;4.27;2.60;;;19.40;91.20;;;;;;4971214;28;20463;-72
2022/05/09 07:52:42;;;;;;;3.40;2.13;;;19.00;92.10;;;;;;4970531;28;20472;-72
2022/05/09 07:55:10;;;;;;;2.80;2.03;;;18.40;92.90;;;;;;4971258;28;20523;-72
2022/05/09 07:57:37;;;;;;;3.03;1.60;;;18.00;93.50;;;;;;4971486;28;20583;-72
2022/05/09 08:00:05;;;;;;;3.47;2.30;;;17.60;94.30;;;;;;4970765;28;20905;-72
2022/05/09 08:02:34;;;;;;;4.33;2.23;;;17.30;94.90;;;;;;4971295;28;20464;-72
2022/05/09 08:05:00;;;;;;;2.73;1.63;;;17.20;95.50;;;;;;4971213;28;20534;-72
2022/05/09 08:07:27;;;;;;;4.50;1.90;;;17.30;95.90;;;;;;4970449;28;20908;-72
2022/05/09 08:09:54;;;;;;;2.30;2.10;;;17.30;95.80;;;;;;4973413;28;21027;-72
2022/05/09 08:12:20;;;;;;;2.57;1.70;;;17.40;96.10;;;;;;4974847;28;20498;-72
2022/05/09 08:14:47;;;;;;;3.13;2.17;;;17.40;96.10;;;;;;4974899;28;20499;-73
2022/05/09 08:17:14;;;;;;;3.23;2.33;;;17.30;96.30;;;;;;4974509;28;20463;-72
2022/05/09 08:19:43;;;;;;;4.00;2.07;;;17.40;96.40;;;;;;4973971;28;20467;-72
2022/05/09 08:22:09;;;;;;;5.50;2.00;;;17.20;96.50;;;;;;4987917;28;20479;-72
2022/05/09 08:24:36;;;;;;;3.00;2.10;;;17.30;96.80;;;;;;4993883;28;20479;-72
2022/05/09 08:27:03;;;;;;;6.37;3.13;;;17.30;97.00;;;;;;4993813;28;20517;-72
2022/05/09 08:29:30;;;;;;;5.10;2.47;;;17.20;97.20;;;;;;4993719;28;20963;-72
2022/05/09 08:31:57;;;;;;;3.93;2.17;;;17.10;96.90;;;;;;4993713;28;20525;-72
2022/05/09 08:34:24;;;;;;;4.93;2.10;;;17.10;97.40;;;;;;4993818;28;20970;-72
2022/05/09 08:36:53;;;;;;;2.20;2.00;;;17.00;97.60;;;;;;4993374;28;20541;-71
2022/05/09 08:39:22;;;;;;;2.20;2.00;;;17.10;98.10;;;;;;4993649;28;20471;-72
2022/05/09 08:41:56;;;;;;;4.10;2.47;;;17.10;97.50;;;;;;4993105;28;20471;-72
2022/05/09 08:44:41;;;;;;;5.67;1.87;;;17.10;97.20;;;;;;4993609;28;20513;-72
2022/05/09 08:47:29;;;;;;;1.73;1.63;;;17.10;97.00;;;;;;4993705;28;20465;-73
2022/05/09 08:50:09;;;;;;;3.73;1.40;;;17.00;96.70;;;;;;4992940;28;20534;-73
2022/05/09 08:52:42;;;;;;;5.47;2.13;;;17.00;96.30;;;;;;4992719;28;20471;-72
2022/05/09 08:55:11;;;;;;;2.10;1.70;;;17.10;96.90;;;;;;4993140;28;20605;-73
2022/05/09 08:57:41;;;;;;;1.63;1.53;;;17.20;96.80;;;;;;4993402;28;20470;-72
2022/05/09 09:00:11;;;;;;;3.10;2.90;;;17.30;96.40;;;;;;4983476;28;20828;-72
2022/05/09 09:02:44;;;;;;;1.67;1.60;;;17.40;96.70;;;;;;4974177;28;20466;-73
2022/05/09 09:05:13;;;;;;;3.97;1.80;;;17.50;95.20;;;;;;4973819;28;20488;-73
2022/05/09 09:08:00;;;;;;;4.20;2.10;;;17.30;94.90;;;;;;4973071;28;20467;-72
2022/05/09 09:10:33;;;;;;;2.23;2.10;;;17.30;94.50;;;;;;4973381;28;20530;-72
2022/05/09 09:13:10;;;;;;;1.63;1.53;;;17.30;94.90;;;;;;4973499;28;20470;-73
2022/05/09 09:15:49;;;;;;;4.73;2.00;;;17.40;95.10;;;;;;4973738;28;20496;-73
2022/05/09 09:18:29;;;;;;;4.27;2.00;;;17.50;95.40;;;;;;4973653;28;20467;-74
2022/05/09 09:21:00;;;;;;;3.03;2.10;;;17.60;95.30;;;;;;4972584;28;20964;-74
2022/05/09 09:24:01;;;;;;;2.50;1.73;;;17.70;95.40;;;;;;4972696;28;20476;-74
2022/05/09 09:26:34;;;;;;;2.20;1.90;;;17.80;94.10;;;;;;4973505;28;20459;-74
2022/05/09 09:29:07;;;;;;;2.83;2.53;;;17.70;93.60;;;;;;4973508;28;20463;-74
2022/05/09 09:31:38;;;;;;;1.80;1.50;;;17.50;93.70;;;;;;4972818;28;20475;-74
2022/05/09 09:34:16;;;;;;;2.73;2.27;;;17.50;93.70;;;;;;4973090;28;20484;-74
2022/05/09 09:36:49;;;;;;;5.50;2.40;;;17.70;93.20;;;;;;4972589;28;20487;-74
2022/05/09 09:39:19;;;;;;;4.33;2.20;;;17.70;93.80;;;;;;4973198;28;20582;-75
2022/05/09 09:41:47;;;;;;;3.87;1.90;;;17.80;91.50;;;;;;4972709;28;20463;-74
2022/05/09 09:44:17;;;;;;;7.40;2.00;;;17.90;91.80;;;;;;4973190;28;20487;-73
2022/05/09 09:47:11;;;;;;;2.67;2.07;;;17.80;90.80;;;;;;4973271;28;20460;-72
2022/05/09 09:49:40;;;;;;;2.77;2.53;;;17.90;91.30;;;;;;4963499;28;20881;-72
2022/05/09 09:52:19;;;;;;;5.30;2.73;;;18.00;92.40;;;;;;4972654;28;20495;-72
2022/05/09 09:54:56;;;;;;;3.37;2.20;;;18.20;93.50;;;;;;4973295;28;20490;-72
2022/05/09 09:57:28;;;;;;;2.33;2.23;;;18.20;92.50;;;;;;4975020;28;20542;-72
2022/05/09 09:59:56;;;;;;;3.20;2.00;;;18.30;91.20;;;;;;4973472;28;20475;-72
2022/05/09 10:02:26;;;;;;;2.40;1.77;;;18.30;89.80;;;;;;4972855;28;20471;-72
2022/05/09 10:04:56;;;;;;;2.27;2.07;;;18.30;90.10;;;;;;4972840;28;20488;-72
2022/05/09 10:10:33;;;;;;;3.17;2.23;;;18.60;91.30;;;;;;4969380;28;20471;-72
2022/05/09 10:13:24;;;;;;;5.30;2.20;;;18.70;90.80;;;;;;4972711;28;20464;-72
2022/05/09 10:16:04;;;;;;;5.03;2.07;;;18.80;90.60;;;;;;4994609;23;21007;-67
2022/05/09 10:18:33;;;;;;;6.90;2.53;;;18.90;90.30;;;;;;4972177;28;20463;-67
2022/05/09 10:21:02;;;;;;;5.83;2.10;;;18.70;90.30;;;;;;4970152;28;20471;-67
2022/05/09 10:26:24;;;;;;;6.27;1.40;;;18.80;87.50;;;;;;4952994;29;20460;-67
2022/05/09 10:28:56;;;;;;;5.93;2.50;;;19.10;86.60;;;;;;4952883;29;20471;-67
2022/05/09 10:31:28;;;;;;;1.83;1.80;;;19.10;86.80;;;;;;4951874;28;20469;-67
2022/05/09 10:34:01;;;;;;;2.33;2.10;;;19.10;86.90;;;;;;4952834;29;20957;-68
2022/05/09 10:36:32;;;;;;;2.67;1.77;;;19.10;86.40;;;;;;4952514;29;20548;-68
2022/05/09 10:39:04;;;;;;;1.87;1.77;;;19.00;84.20;;;;;;4952346;29;20561;-68
2022/05/09 10:41:40;;;;;;;4.83;2.50;;;19.10;82.10;;;;;;4952307;29;20843;-68
2022/05/09 10:44:14;;;;;;;3.80;1.97;;;19.00;82.90;;;;;;4952553;29;20484;-68
2022/05/09 10:46:47;;;;;;;2.03;1.93;;;19.00;83.60;;;;;;4952694;29;20480;-68
2022/05/09 10:49:21;;;;;;;3.33;2.50;;;19.10;82.40;;;;;;4952551;29;20531;-68
2022/05/09 10:51:59;;;;;;;4.13;2.47;;;19.20;84.40;;;;;;4951563;29;20870;-68
2022/05/09 10:54:31;;;;;;;2.27;2.10;;;19.20;85.30;;;;;;4952204;29;20898;-68
2022/05/09 10:57:08;;;;;;;3.17;2.00;;;19.40;85.30;;;;;;4952471;29;20497;-68
2022/05/09 10:59:41;;;;;;;2.13;1.97;;;19.20;81.40;;;;;;4952052;29;20527;-68
2022/05/09 11:02:18;;;;;;;2.93;1.90;;;19.10;79.10;;;;;;4952556;29;20833;-68
2022/05/09 11:04:44;;;;;;;3.97;1.87;;;19.10;77.30;;;;;;4952627;29;20547;-68
2022/05/09 11:07:26;;;;;;;4.10;2.03;;;19.20;77.50;;;;;;4951637;29;20949;-68
2022/05/09 11:10:11;;;;;;;2.90;2.27;;;19.40;80.10;;;;;;4947639;29;20592;-68
2022/05/09 11:13:01;;;;;;;2.20;2.10;;;19.50;81.60;;;;;;4932704;29;20473;-68
2022/05/09 11:15:36;;;;;;;1.97;1.80;;;19.50;79.30;;;;;;4933219;29;20981;-68
2022/05/09 11:18:27;;;;;;;1.70;1.60;;;19.50;80.30;;;;;;4933147;29;20470;-68
2022/05/09 11:21:04;;;;;;;4.37;2.40;;;19.60;77.90;;;;;;4932156;29;20470;-68
2022/05/09 11:23:35;;;;;;;4.50;2.20;;;19.80;76.30;;;;;;4932444;29;20468;-68
2022/05/09 11:26:13;;;;;;;2.10;1.97;;;19.70;74.40;;;;;;4933251;29;20548;-68
2022/05/09 11:29:06;;;;;;;2.50;1.97;;;19.80;74.10;;;;;;4933313;29;20872;-68
2022/05/09 11:31:43;;;;;;;1.87;1.77;;;19.70;73.20;;;;;;4932620;29;20540;-68
2022/05/09 11:34:23;;;;;;;4.07;2.37;;;19.90;72.20;;;;;;4933328;29;20485;-68
2022/05/09 11:37:02;;;;;;;7.60;2.00;;;19.90;71.70;;;;;;4932920;29;20544;-69
2022/05/09 11:39:39;;;;;;;1.83;1.73;;;19.90;71.50;;;;;;4933043;29;20475;-68
2022/05/09 11:45:09;;;;;;;1.53;1.53;;;20.00;65.80;;;;;;4936781;29;20549;-68
2022/05/09 11:47:44;;;;;;;4.67;2.73;;;20.00;67.60;;;;;;4936561;29;20903;-68
2022/05/09 11:50:24;;;;;;;1.90;1.70;;;19.90;67.80;;;;;;4950967;29;20526;-68
2022/05/09 11:52:52;;;;;;;1.97;1.80;;;20.00;68.70;;;;;;4954884;29;20547;-68
2022/05/09 11:55:21;;;;;;;1.90;1.63;;;20.10;68.20;;;;;;4955472;29;20520;-68
2022/05/09 11:57:53;;;;;;;2.37;1.77;;;20.20;68.90;;;;;;4955594;29;21017;-68
2022/05/09 12:00:52;;;;;;;2.17;2.07;;;20.30;69.70;;;;;;4955217;29;20472;-69
2022/05/09 12:03:52;;;;;;;3.27;3.00;;;20.40;69.90;;;;;;4955204;29;20528;-69
2022/05/09 12:06:33;;;;;;;3.70;1.93;;;20.50;68.40;;;;;;4955037;29;20468;-69
2022/05/09 12:09:01;;;;;;;1.60;1.50;;;20.60;65.50;;;;;;4955221;29;20508;-68
2022/05/09 12:11:42;;;;;;;2.47;2.27;;;20.50;66.50;;;;;;4954806;29;20496;-68
2022/05/09 12:14:09;;;;;;;2.30;2.10;;;20.50;68.30;;;;;;4955380;29;20550;-68
2022/05/09 12:16:53;;;;;;;2.00;1.90;;;20.50;68.80;;;;;;4955112;29;20489;-68
2022/05/09 12:19:32;;;;;;;2.60;1.70;;;20.40;69.00;;;;;;4955710;29;20469;-69
2022/05/09 12:22:20;;;;;;;4.43;1.83;;;20.50;70.60;;;;;;4953028;29;20953;-68
2022/05/09 12:24:47;;;;;;;1.63;1.53;;;20.50;67.40;;;;;;4935922;29;20482;-68
2022/05/09 12:27:56;;;;;;;2.60;1.63;;;20.60;65.60;;;;;;4936054;29;20465;-68
2022/05/09 12:30:43;;;;;;;1.80;1.70;;;20.60;66.10;;;;;;4935505;29;20568;-69
2022/05/09 12:33:18;;;;;;;5.00;1.83;;;20.60;67.40;;;;;;4935733;29;20474;-69
2022/05/09 12:35:46;;;;;;;2.60;1.70;;;20.70;68.30;;;;;;4935524;29;20507;-69
2022/05/09 12:38:13;;;;;;;1.83;1.73;;;20.70;67.70;;;;;;4934534;29;20497;-68
2022/05/09 12:40:40;;;;;;;4.50;1.90;;;20.90;64.40;;;;;;4935186;29;20974;-69
2022/05/09 12:43:08;;;;;;;3.67;1.80;;;20.90;65.30;;;;;;4935633;29;20473;-68
2022/05/09 12:45:39;;;;;;;1.90;1.83;;;20.90;65.10;;;;;;4935475;29;21016;-68
2022/05/09 12:48:09;;;;;;;1.60;1.47;;;20.90;62.40;;;;;;4935963;29;20469;-68
2022/05/09 12:50:43;;;;;;;4.47;1.73;;;21.00;62.90;;;;;;4934845;29;20910;-68
2022/05/09 12:53:11;;;;;;;4.73;1.77;;;21.00;64.20;;;;;;4934706;29;20477;-68
2022/05/09 12:55:55;;;;;;;5.27;2.20;;;21.00;65.10;;;;;;4934606;29;21014;-68
2022/05/09 12:58:31;;;;;;;2.60;2.40;;;20.90;64.70;;;;;;4935344;29;20570;-68
2022/05/09 13:01:00;;;;;;;1.53;1.50;;;21.00;63.90;;;;;;4934710;29;20479;-68
2022/05/09 13:03:27;;;;;;;3.10;1.97;;;21.00;64.20;;;;;;4935173;29;20470;-68
2022/05/09 13:05:55;;;;;;;2.43;1.53;;;21.20;65.20;;;;;;4935115;29;20923;-68
2022/05/09 13:08:25;;;;;;;1.93;1.80;;;21.30;64.90;;;;;;4934415;29;20465;-68
2022/05/09 13:10:54;;;;;;;2.20;1.97;;;21.30;63.80;;;;;;4939665;29;20470;-67
2022/05/09 13:13:30;;;;;;;2.00;1.90;;;21.40;63.30;;;;;;4937184;29;20513;-67
2022/05/09 13:15:57;;;;;;;5.07;1.93;;;21.30;60.40;;;;;;4935114;29;20548;-67
2022/05/09 13:18:27;;;;;;;2.00;1.90;;;21.50;61.70;;;;;;4935010;29;21061;-67
2022/05/09 13:20:58;;;;;;;2.07;1.97;;;21.50;61.50;;;;;;4934688;29;20861;-67
2022/05/09 13:23:36;;;;;;;1.83;1.73;;;21.40;61.50;;;;;;4934397;29;20677;-68
2022/05/09 13:26:05;;;;;;;3.40;2.00;;;21.40;59.80;;;;;;4934898;29;20544;-68
2022/05/09 13:28:49;;;;;;;2.57;2.37;;;21.40;63.10;;;;;;4934746;29;20903;-68
2022/05/09 13:31:27;;;;;;;4.30;1.87;;;21.20;61.80;;;;;;4934297;29;20528;-68
2022/05/09 13:33:54;;;;;;;2.83;1.80;;;21.20;61.30;;;;;;4935003;29;20504;-68
2022/05/09 13:36:27;;;;;;;2.27;2.13;;;21.30;62.80;;;;;;4934228;29;20469;-69
2022/05/09 13:38:54;;;;;;;2.43;2.23;;;21.40;64.30;;;;;;4934808;29;20548;-69
2022/05/09 13:41:24;;;;;;;2.07;1.57;;;21.30;63.20;;;;;;4934150;29;20470;-68
2022/05/09 13:43:54;;;;;;;2.43;2.33;;;21.30;63.00;;;;;;4934851;29;20887;-68
2022/05/09 13:46:24;;;;;;;2.83;2.40;;;21.40;63.80;;;;;;4934568;29;20521;-68
2022/05/09 13:48:54;;;;;;;2.40;2.20;;;21.40;62.60;;;;;;4938969;29;20580;-68
2022/05/09 13:51:28;;;;;;;2.40;2.00;;;21.50;63.00;;;;;;4952554;29;20465;-68
2022/05/09 13:53:57;;;;;;;3.43;1.87;;;21.70;63.80;;;;;;4953208;29;20854;-68
2022/05/09 13:56:25;;;;;;;3.80;2.10;;;21.80;62.40;;;;;;4953299;29;20559;-68
2022/05/09 13:58:57;;;;;;;1.80;1.40;;;21.80;62.70;;;;;;4953325;29;20473;-69
2022/05/09 14:01:25;;;;;;;2.60;2.40;;;21.60;61.40;;;;;;4952985;29;20528;-68
2022/05/09 14:03:55;;;;;;;1.90;1.80;;;21.60;62.20;;;;;;4953373;29;20469;-68
2022/05/09 14:06:28;;;;;;;4.87;2.23;;;21.70;62.70;;;;;;4953130;28;20551;-67
2022/05/09 14:09:00;;;;;;;2.67;2.10;;;22.00;61.10;;;;;;4952977;29;20531;-68
2022/05/09 14:11:32;;;;;;;2.67;2.57;;;22.00;61.50;;;;;;4952443;29;20473;-68
2022/05/09 14:13:59;;;;;;;2.47;2.10;;;21.80;62.40;;;;;;4952797;29;20465;-68
2022/05/09 14:16:31;;;;;;;5.70;3.00;;;21.90;62.50;;;;;;4953108;29;20475;-68
2022/05/09 14:19:09;;;;;;;2.87;2.20;;;22.00;63.40;;;;;;4953442;29;20865;-68
2022/05/09 14:21:41;;;;;;;1.87;1.87;;;22.00;62.20;;;;;;4950197;29;20949;-68
2022/05/09 14:24:10;;;;;;;2.60;2.43;;;22.10;62.70;;;;;;4952297;29;21001;-68
2022/05/09 14:29:38;;;;;;;5.27;2.57;;;21.90;62.80;;;;;;4952876;29;20824;-68
2022/05/09 14:32:08;;;;;;;2.40;2.20;;;21.80;63.00;;;;;;4952908;29;20559;-68
2022/05/09 14:34:52;;;;;;;2.67;2.57;;;22.00;63.70;;;;;;4952435;29;20473;-69
2022/05/09 14:37:30;;;;;;;2.63;2.23;;;22.20;63.50;;;;;;4953443;29;20498;-68
2022/05/09 14:40:14;;;;;;;3.97;3.07;;;22.30;63.60;;;;;;4952807;29;20868;-68
2022/05/09 14:42:49;;;;;;;2.67;2.43;;;22.20;61.80;;;;;;4952575;29;20531;-69
2022/05/09 14:45:20;;;;;;;2.00;1.93;;;22.20;62.60;;;;;;4952910;29;20559;-68
2022/05/09 14:47:50;;;;;;;3.20;2.67;;;22.30;62.00;;;;;;4952429;29;20475;-68
2022/05/09 14:50:20;;;;;;;3.17;2.83;;;22.40;62.60;;;;;;4952188;29;20473;-68
2022/05/09 14:52:53;;;;;;;3.50;3.10;;;22.30;62.70;;;;;;4951793;29;20500;-68
2022/05/09 14:58:17;;;;;;;3.10;2.70;;;22.40;62.30;;;;;;4952434;29;20487;-68
2022/05/09 15:00:50;;;;;;;3.07;2.17;;;22.40;61.90;;;;;;4952511;29;20595;-69
2022/05/09 15:03:20;;;;;;;3.93;2.40;;;22.50;61.90;;;;;;4952773;29;20835;-69
2022/05/09 15:05:48;;;;;;;3.03;2.50;;;22.60;62.80;;;;;;4952446;29;20587;-68
2022/05/09 15:08:16;;;;;;;2.93;2.57;;;22.60;61.80;;;;;;4952016;29;20564;-69
2022/05/09 15:10:44;;;;;;;2.50;2.30;;;22.70;62.40;;;;;;4941031;29;20524;-68
2022/05/09 15:13:13;;;;;;;2.40;2.10;;;22.70;60.70;;;;;;4948596;29;20519;-69
2022/05/09 15:15:43;;;;;;;2.87;2.67;;;22.50;60.20;;;;;;4952216;29;20535;-69
2022/05/09 15:18:09;;;;;;;2.53;2.33;;;22.50;60.80;;;;;;4954254;28;20579;-69
2022/05/09 15:20:36;;;;;;;2.33;2.20;;;22.50;60.90;;;;;;4955305;29;20966;-69
2022/05/09 15:23:03;;;;;;;2.10;1.90;;;22.70;61.00;;;;;;4955658;29;20678;-69
2022/05/09 15:25:31;;;;;;;3.03;2.53;;;22.70;59.70;;;;;;4956414;29;20529;-69
2022/05/09 15:27:58;;;;;;;3.90;2.33;;;22.80;59.30;;;;;;4956342;29;20475;-69
2022/05/09 15:30:25;;;;;;;2.67;2.43;;;22.80;59.90;;;;;;4955472;29;20476;-69
2022/05/09 15:32:53;;;;;;;4.90;2.60;;;22.90;60.00;;;;;;4956087;29;20861;-70
2022/05/09 15:35:21;;;;;;;2.70;2.50;;;22.90;60.40;;;;;;4955833;29;20492;-67
2022/05/09 15:37:49;;;;;;;1.90;1.80;;;22.90;60.00;;;;;;4955181;29;20565;-70
2022/05/09 15:40:16;;;;;;;4.23;2.30;;;22.90;59.20;;;;;;4955878;29;20539;-67
2022/05/09 15:42:45;;;;;;;7.07;2.30;;;22.90;59.20;;;;;;4955955;29;20500;-68
2022/05/09 15:45:15;;;;;;;3.80;2.60;;;22.90;59.30;;;;;;4955736;29;20484;-67
2022/05/09 15:47:44;;;;;;;3.67;2.40;;;22.80;58.80;;;;;;4956027;29;20473;-68
2022/05/09 15:50:13;;;;;;;2.47;2.27;;;22.80;60.00;;;;;;4953139;29;20535;-68
2022/05/09 15:52:42;;;;;;;5.80;2.10;;;22.90;60.50;;;;;;4954785;29;20547;-68
2022/05/09 15:55:09;;;;;;;3.63;2.83;;;22.80;60.50;;;;;;4956046;29;20497;-68
2022/05/09 15:57:37;;;;;;;3.70;3.27;;;22.80;60.50;;;;;;4956569;29;20519;-69
2022/05/09 16:00:11;;;;;;;3.67;2.93;;;22.80;60.30;;;;;;4955186;29;20497;-68
2022/05/09 16:02:38;;;;;;;4.67;2.70;;;22.90;60.50;;;;;;4955608;29;20483;-68
2022/05/09 16:05:06;;;;;;;4.60;2.50;;;22.90;59.90;;;;;;4955318;29;21052;-69
2022/05/09 16:13:02;;;;;;;2.87;2.77;;;22.80;59.10;;;;;;4955320;29;20452;-68
2022/05/09 16:15:31;;;;;;;2.97;2.57;;;22.70;59.60;;;;;;4980567;23;20591;-69
2022/05/09 16:18:02;;;;;;;2.70;2.30;;;22.80;59.90;;;;;;4974885;28;20491;-68
2022/05/09 16:20:29;;;;;;;2.23;2.10;;;22.70;59.30;;;;;;4974313;28;20466;-68
2022/05/09 16:22:56;;;;;;;3.33;2.50;;;22.70;59.30;;;;;;4973739;28;20530;-69
2022/05/09 16:25:23;;;;;;;4.67;1.97;;;22.80;59.70;;;;;;4974644;28;20491;-69
2022/05/09 16:27:50;;;;;;;5.40;2.30;;;22.80;59.50;;;;;;4974546;28;20555;-68
2022/05/09 16:30:20;;;;;;;2.83;2.10;;;22.80;59.80;;;;;;4972967;28;20475;-69
2022/05/09 16:32:49;;;;;;;2.20;2.10;;;22.80;59.90;;;;;;4974470;28;20539;-70
2022/05/09 16:35:17;;;;;;;3.33;2.43;;;22.80;61.00;;;;;;4974356;28;20494;-70
2022/05/09 16:37:45;;;;;;;3.07;2.70;;;22.70;61.70;;;;;;4969689;28;20481;-69
2022/05/09 16:40:13;;;;;;;3.30;2.53;;;22.60;62.20;;;;;;4954640;28;20468;-70
2022/05/09 16:42:42;;;;;;;2.53;2.10;;;22.60;62.60;;;;;;4954875;29;20464;-69
2022/05/09 16:45:11;;;;;;;2.30;2.20;;;22.60;61.60;;;;;;4955086;29;20925;-69
2022/05/09 16:47:40;;;;;;;2.07;1.97;;;22.60;61.50;;;;;;4954852;29;20759;-69
2022/05/09 16:50:10;;;;;;;2.40;2.40;;;22.50;60.40;;;;;;4954102;29;20472;-69
2022/05/09 16:52:37;;;;;;;3.33;2.63;;;22.50;61.00;;;;;;4954283;29;20469;-68
2022/05/09 16:55:06;;;;;;;2.43;2.13;;;22.50;61.00;;;;;;4954821;29;20503;-68
2022/05/09 16:57:33;;;;;;;3.47;1.80;;;22.50;61.50;;;;;;4954863;29;20464;-69
2022/05/09 16:59:59;;;;;;;3.53;1.83;;;22.50;60.70;;;;;;4954285;29;20496;-68
2022/05/09 17:02:27;;;;;;;5.80;2.60;;;22.40;60.60;;;;;;4954263;29;20492;-68
2022/05/09 17:04:55;;;;;;;3.17;1.87;;;22.20;60.50;;;;;;4954619;29;21104;-70
2022/05/09 17:07:24;;;;;;;2.77;2.30;;;22.20;61.30;;;;;;4953919;29;20552;-69
2022/05/09 17:09:50;;;;;;;2.47;2.27;;;22.10;61.10;;;;;;4953994;28;20475;-69
2022/05/09 17:12:21;;;;;;;2.17;2.07;;;22.10;61.10;;;;;;4962567;28;20900;-69
2022/05/09 17:14:49;;;;;;;2.60;2.40;;;22.00;61.20;;;;;;4973697;28;20843;-69
2022/05/09 17:17:15;;;;;;;2.37;2.20;;;21.90;61.20;;;;;;4974011;28;20808;-70
2022/05/09 17:19:42;;;;;;;2.67;2.33;;;21.90;61.80;;;;;;4973272;28;20542;-69
2022/05/09 17:22:09;;;;;;;2.40;2.30;;;21.90;61.50;;;;;;4973336;28;20464;-70
2022/05/09 17:24:37;;;;;;;2.40;2.20;;;21.90;61.60;;;;;;4973488;28;20491;-70
2022/05/09 17:27:07;;;;;;;2.47;2.27;;;21.80;62.40;;;;;;4973367;28;20496;-69
2022/05/09 17:29:36;;;;;;;3.67;2.83;;;21.70;62.80;;;;;;4972789;28;20463;-69